aviador You're here:

SCCH Decoded Metar

CHILLAN in CHILE
Report Time2017-08-20 19:00:00
UTC Time2017-08-20 19:14:17
Flight Rules vfr VFR
Wind210° at 07 kt
W.Decomp.*RWY 22: 6.8 kt HW 1.8 kt LCW
W.Rank210° ranks 1
Current wind is above 210° avg. (6.2)
Visibility9999 m
Phenomena:N/A
Clouds:N/A
Expected CloudBase > 3,600 ft AGL from Temp-Dew spread
CeilingNone
Temp14°C (ISA -0)
Dew Point05°C (55% RH)
AAT10.4°C
QNH1022 hPa
Density Alt299 ft
Elevation486 ft
Report Wrong Elevation
Raw Report
SCCH 201900Z 21007KT CAVOK 14/05 Q1022=

Extra information for SCCH:More info

Metar Taf Metar & Taf Last 4 Metars F.Rules Stats Wind Profile Meteogram Temp Stats Airport Information Weather charts Add Link Nearby VenuesMetar ALERT Operation Metar Decoded Social comments